Time;durP1;ratioP1;P1;durP2;ratioP2;P2;SDS_P1;SDS_P2;PMS_P1;PMS_P2;Temp;Humidity;BMP_temperature;BMP_pressure;BME280_temperature;BME280_humidity;BME280_pressure;Samples;Min_cycle;Max_cycle;Signal;HPM_P1;HPM_P2
2023/08/01 00:01:09;;;;;;;3.58;0.98;;;15.80;99.90;;;;;;5052824;28;20197;-77
2023/08/01 00:03:40;;;;;;;3.22;0.68;;;15.90;99.90;;;;;;5057804;28;20232;-80
2023/08/01 00:06:11;;;;;;;4.70;0.90;;;16.00;99.90;;;;;;5069457;28;20193;-77
2023/08/01 00:08:42;;;;;;;1.75;0.80;;;16.20;99.90;;;;;;5070004;28;20283;-78
2023/08/01 00:11:14;;;;;;;2.70;0.70;;;16.20;99.90;;;;;;5071597;28;20575;-77
2023/08/01 00:13:47;;;;;;;1.83;0.70;;;16.40;99.90;;;;;;5057634;28;20248;-78
2023/08/01 00:16:18;;;;;;;1.50;0.65;;;16.60;99.90;;;;;;5071933;28;20661;-76
2023/08/01 00:18:49;;;;;;;2.03;0.80;;;16.60;99.90;;;;;;5055443;28;20208;-77
2023/08/01 00:21:20;;;;;;;1.58;0.70;;;16.60;99.90;;;;;;5057293;28;20277;-77
2023/08/01 00:23:51;;;;;;;1.42;0.60;;;16.70;99.90;;;;;;5064983;28;20200;-80
2023/08/01 00:26:22;;;;;;;6.05;0.90;;;16.80;99.90;;;;;;5056790;28;20292;-79
2023/08/01 00:28:55;;;;;;;3.63;0.70;;;16.80;99.90;;;;;;5067205;28;20212;-79
2023/08/01 00:31:27;;;;;;;4.35;1.10;;;16.80;99.90;;;;;;5060304;28;20699;-78
2023/08/01 00:33:58;;;;;;;5.10;1.10;;;16.90;99.90;;;;;;5066695;28;20641;-78
2023/08/01 00:36:30;;;;;;;4.88;1.40;;;17.10;99.90;;;;;;5070571;28;20215;-77
2023/08/01 00:39:01;;;;;;;4.40;0.80;;;17.20;99.90;;;;;;5070866;28;20193;-76
2023/08/01 00:41:32;;;;;;;3.60;0.98;;;17.30;99.90;;;;;;5075058;28;20193;-78
2023/08/01 00:44:05;;;;;;;3.00;1.00;;;17.50;99.90;;;;;;5066710;28;20566;-77
2023/08/01 00:46:37;;;;;;;5.65;1.10;;;17.60;99.90;;;;;;5067679;28;20661;-77
2023/08/01 00:49:08;;;;;;;3.28;1.10;;;17.70;99.90;;;;;;5065825;28;20591;-77
2023/08/01 00:51:39;;;;;;;3.28;0.90;;;17.80;99.90;;;;;;5056256;28;20572;-79
2023/08/01 00:54:11;;;;;;;2.58;0.77;;;17.70;99.90;;;;;;5058793;28;20200;-76
2023/08/01 00:56:42;;;;;;;2.33;0.88;;;17.70;99.90;;;;;;5063498;28;20200;-76
2023/08/01 00:59:16;;;;;;;2.55;0.77;;;17.80;99.90;;;;;;5080128;28;20230;-78
2023/08/01 01:01:47;;;;;;;2.85;0.90;;;17.80;99.90;;;;;;5078649;28;20196;-76
2023/08/01 01:04:18;;;;;;;4.38;1.10;;;18.00;99.90;;;;;;5063248;28;20197;-77
2023/08/01 01:06:51;;;;;;;6.95;1.20;;;18.10;99.90;;;;;;5057404;28;20197;-76
2023/08/01 01:09:23;;;;;;;4.65;1.90;;;18.20;99.90;;;;;;5058955;28;20225;-77
2023/08/01 01:11:54;;;;;;;2.45;0.93;;;18.20;99.90;;;;;;5067306;28;20680;-76
2023/08/01 01:14:27;;;;;;;1.42;0.70;;;18.30;99.90;;;;;;5074736;28;20566;-76
2023/08/01 01:16:59;;;;;;;3.55;0.75;;;18.40;99.90;;;;;;5063802;28;20649;-77
2023/08/01 01:19:30;;;;;;;4.95;0.90;;;18.50;99.90;;;;;;5055490;28;20197;-79
2023/08/01 01:22:04;;;;;;;3.20;0.90;;;18.60;99.90;;;;;;5055986;28;20189;-76
2023/08/01 01:24:37;;;;;;;1.90;0.70;;;18.70;99.90;;;;;;5057868;28;20212;-77
2023/08/01 01:27:10;;;;;;;2.42;0.70;;;18.70;99.90;;;;;;5095778;28;20196;-74
2023/08/01 01:29:42;;;;;;;2.35;0.70;;;18.80;99.90;;;;;;5077508;28;20216;-77
2023/08/01 01:32:13;;;;;;;1.98;0.60;;;18.90;99.90;;;;;;5057984;28;20218;-75
2023/08/01 01:34:44;;;;;;;1.75;0.60;;;19.10;99.90;;;;;;5059813;28;20187;-76
2023/08/01 01:37:18;;;;;;;6.15;3.05;;;19.20;99.90;;;;;;5074021;28;20208;-77
2023/08/01 01:39:49;;;;;;;2.53;1.00;;;19.30;99.90;;;;;;5070901;28;20260;-75
2023/08/01 01:42:20;;;;;;;3.03;0.77;;;19.40;99.90;;;;;;5055692;28;20555;-77
2023/08/01 01:44:51;;;;;;;3.67;0.82;;;19.50;99.90;;;;;;5058764;28;20192;-77
2023/08/01 01:47:22;;;;;;;3.33;0.70;;;19.50;99.90;;;;;;5070967;28;20202;-79
2023/08/01 01:49:53;;;;;;;1.90;0.50;;;19.60;99.90;;;;;;5075360;28;20220;-78
2023/08/01 01:52:26;;;;;;;1.88;0.68;;;19.70;99.90;;;;;;5075559;28;20193;-78
2023/08/01 01:54:57;;;;;;;4.32;0.70;;;19.70;99.90;;;;;;5075238;28;20711;-80
2023/08/01 01:57:28;;;;;;;1.67;0.60;;;19.80;99.90;;;;;;5066138;28;20669;-78
2023/08/01 01:59:59;;;;;;;3.80;0.60;;;19.80;99.90;;;;;;5067846;28;20193;-78
2023/08/01 02:02:31;;;;;;;2.35;0.65;;;19.90;99.90;;;;;;5054992;28;20240;-78
2023/08/01 02:05:02;;;;;;;2.88;0.50;;;19.90;99.90;;;;;;5069042;28;20198;-78
2023/08/01 02:07:35;;;;;;;3.40;0.65;;;19.90;99.90;;;;;;5075342;28;20186;-79
2023/08/01 02:10:06;;;;;;;4.60;0.80;;;20.00;99.90;;;;;;5068745;28;20677;-78
2023/08/01 02:12:37;;;;;;;1.92;0.73;;;20.00;99.90;;;;;;5064591;28;20193;-77
2023/08/01 02:15:09;;;;;;;37.63;28.65;;;20.10;99.90;;;;;;5075056;28;20199;-78
2023/08/01 02:17:40;;;;;;;10.43;6.50;;;20.20;99.90;;;;;;5074785;28;20189;-77
2023/08/01 02:20:12;;;;;;;18.70;11.70;;;20.20;99.90;;;;;;5074872;28;20556;-80
2023/08/01 02:22:45;;;;;;;4.90;2.10;;;20.30;99.90;;;;;;5065887;28;20572;-77
2023/08/01 02:25:16;;;;;;;2.40;0.90;;;20.50;99.90;;;;;;5054412;28;20205;-79
2023/08/01 02:27:47;;;;;;;2.65;0.77;;;20.50;99.90;;;;;;5054844;28;20209;-76
2023/08/01 02:30:18;;;;;;;2.83;0.80;;;20.60;99.90;;;;;;5053130;28;20241;-77
2023/08/01 02:32:49;;;;;;;7.35;4.70;;;20.70;99.90;;;;;;5059868;28;20190;-78
2023/08/01 02:35:20;;;;;;;3.72;1.70;;;20.80;99.90;;;;;;5054379;28;20194;-78
2023/08/01 02:37:53;;;;;;;5.68;2.88;;;20.90;99.90;;;;;;5054652;28;20560;-78
2023/08/01 02:40:25;;;;;;;5.40;2.38;;;20.90;99.90;;;;;;5053164;28;20200;-78
2023/08/01 02:42:57;;;;;;;1.50;0.60;;;20.90;99.90;;;;;;5055768;28;20186;-76
2023/08/01 02:45:28;;;;;;;2.00;0.55;;;20.80;99.90;;;;;;5064894;28;20201;-77
2023/08/01 02:47:59;;;;;;;2.22;0.60;;;20.70;99.90;;;;;;5073908;28;20197;-77
2023/08/01 02:50:30;;;;;;;4.68;1.30;;;20.70;99.90;;;;;;5073640;28;20224;-77
2023/08/01 02:53:03;;;;;;;2.35;0.60;;;20.70;99.90;;;;;;5072543;28;20189;-76
2023/08/01 02:55:34;;;;;;;3.50;0.70;;;20.70;99.90;;;;;;5074435;28;20185;-78
2023/08/01 02:58:05;;;;;;;1.83;0.80;;;20.80;99.90;;;;;;5073765;28;20534;-76
2023/08/01 03:00:36;;;;;;;2.05;0.60;;;20.90;99.90;;;;;;5074406;28;20197;-77
2023/08/01 03:03:07;;;;;;;2.47;0.50;;;20.90;99.90;;;;;;5073426;28;20233;-77
2023/08/01 03:05:40;;;;;;;2.55;0.57;;;21.00;99.90;;;;;;5068526;28;20207;-77
2023/08/01 03:08:13;;;;;;;2.28;0.45;;;21.00;99.90;;;;;;5062441;28;20197;-77
2023/08/01 03:10:44;;;;;;;1.17;0.50;;;21.00;99.90;;;;;;5060479;28;20292;-77
2023/08/01 03:13:15;;;;;;;2.25;0.60;;;21.10;99.90;;;;;;5051160;28;20194;-77
2023/08/01 03:15:46;;;;;;;2.28;0.68;;;21.10;99.90;;;;;;5053076;28;20212;-78
2023/08/01 03:18:17;;;;;;;3.95;0.73;;;21.10;99.90;;;;;;5058200;28;20207;-75
2023/08/01 03:20:48;;;;;;;1.33;0.50;;;21.20;99.90;;;;;;5062891;28;20602;-77
2023/08/01 03:23:21;;;;;;;4.03;0.85;;;21.10;99.90;;;;;;5054370;28;20205;-77
2023/08/01 03:25:53;;;;;;;2.33;0.50;;;21.10;99.90;;;;;;5052809;28;20193;-77
2023/08/01 03:28:24;;;;;;;2.97;0.65;;;21.20;99.90;;;;;;5051566;28;20197;-77
2023/08/01 03:30:55;;;;;;;2.15;0.90;;;21.10;99.90;;;;;;5053275;28;20323;-77
2023/08/01 03:33:26;;;;;;;3.33;0.65;;;21.10;99.90;;;;;;5053424;28;20554;-77
2023/08/01 03:35:57;;;;;;;2.67;0.70;;;21.20;99.90;;;;;;5053386;28;20216;-77
2023/08/01 03:38:31;;;;;;;1.83;0.70;;;21.10;99.90;;;;;;5056321;28;20190;-75
2023/08/01 03:41:03;;;;;;;0.75;0.40;;;21.10;99.90;;;;;;5054204;28;20198;-76
2023/08/01 03:43:35;;;;;;;3.70;0.73;;;21.20;99.90;;;;;;5053126;28;20212;-78
2023/08/01 03:46:06;;;;;;;0.75;0.45;;;21.20;99.90;;;;;;5064041;28;20189;-76
2023/08/01 03:48:37;;;;;;;1.58;0.60;;;21.20;99.90;;;;;;5068005;28;20204;-76
2023/08/01 03:51:08;;;;;;;4.30;0.60;;;21.30;99.90;;;;;;5058599;28;20267;-74
2023/08/01 03:53:41;;;;;;;1.80;0.70;;;21.30;99.90;;;;;;5058678;28;20228;-76
2023/08/01 03:56:13;;;;;;;3.00;0.77;;;21.20;99.90;;;;;;5062547;28;20189;-77
2023/08/01 03:58:44;;;;;;;3.55;0.50;;;21.20;99.90;;;;;;5063952;28;20246;-79
2023/08/01 04:01:15;;;;;;;2.40;0.95;;;21.10;99.90;;;;;;5053409;28;20190;-75
2023/08/01 04:03:46;;;;;;;1.55;0.50;;;21.00;99.90;;;;;;5067855;28;20235;-74
2023/08/01 04:06:17;;;;;;;3.08;0.60;;;21.00;99.90;;;;;;5060622;28;20200;-74
2023/08/01 04:08:51;;;;;;;3.22;0.60;;;21.00;99.90;;;;;;5061493;28;20188;-75
2023/08/01 04:11:22;;;;;;;2.35;0.55;;;21.10;99.90;;;;;;5068338;28;20312;-75
2023/08/01 04:13:53;;;;;;;1.35;0.52;;;21.00;99.90;;;;;;5062019;28;20205;-75
2023/08/01 04:16:24;;;;;;;3.13;0.60;;;21.00;99.90;;;;;;5064273;28;20197;-75
2023/08/01 04:18:56;;;;;;;2.38;0.55;;;21.00;99.90;;;;;;5059203;28;20193;-75
2023/08/01 04:21:27;;;;;;;3.20;0.80;;;21.00;99.90;;;;;;5053235;28;20212;-74
2023/08/01 04:24:00;;;;;;;1.33;0.50;;;21.00;99.90;;;;;;5057698;28;20205;-74
2023/08/01 04:26:31;;;;;;;1.65;0.50;;;20.90;99.90;;;;;;5066639;28;20589;-75
2023/08/01 04:29:02;;;;;;;1.55;0.70;;;20.90;99.90;;;;;;5072828;28;20193;-75
2023/08/01 04:31:33;;;;;;;2.15;0.40;;;20.80;99.90;;;;;;5067597;28;20247;-75
2023/08/01 04:34:04;;;;;;;1.95;0.50;;;20.70;99.90;;;;;;5066165;28;20190;-74
2023/08/01 04:36:35;;;;;;;2.50;0.60;;;20.60;99.90;;;;;;5049582;28;20208;-75
2023/08/01 04:39:08;;;;;;;1.08;0.40;;;20.70;99.90;;;;;;5052145;28;20196;-75
2023/08/01 04:41:39;;;;;;;2.58;0.50;;;20.60;99.90;;;;;;5068658;28;20189;-75
2023/08/01 04:44:10;;;;;;;1.42;0.43;;;20.60;99.90;;;;;;5071782;28;20189;-75
2023/08/01 04:46:41;;;;;;;2.03;0.60;;;20.60;99.90;;;;;;5054574;28;20248;-74
2023/08/01 04:49:12;;;;;;;0.88;0.40;;;20.60;99.90;;;;;;5061665;28;20198;-74
2023/08/01 04:51:43;;;;;;;2.38;0.63;;;20.50;99.90;;;;;;5051435;28;20217;-74
2023/08/01 04:54:16;;;;;;;0.75;0.40;;;20.60;99.90;;;;;;5049895;28;20205;-73
2023/08/01 04:56:48;;;;;;;1.45;0.50;;;20.60;99.90;;;;;;5064167;28;20198;-75
2023/08/01 04:59:19;;;;;;;2.58;0.60;;;20.50;99.90;;;;;;5054290;28;20189;-75
2023/08/01 05:01:50;;;;;;;2.22;0.43;;;20.50;99.90;;;;;;5053948;28;20201;-75
2023/08/01 05:04:21;;;;;;;1.48;0.45;;;20.40;99.90;;;;;;5053764;28;20194;-75
2023/08/01 05:06:52;;;;;;;3.55;0.73;;;20.40;99.90;;;;;;5053382;28;20205;-75
2023/08/01 05:09:25;;;;;;;3.25;0.70;;;20.40;99.90;;;;;;5055908;28;20194;-74
2023/08/01 05:11:56;;;;;;;2.05;0.52;;;20.40;99.90;;;;;;5055915;28;20221;-75
2023/08/01 05:14:27;;;;;;;1.02;0.40;;;20.30;99.90;;;;;;5055242;28;20202;-75
2023/08/01 05:16:58;;;;;;;1.95;0.70;;;20.40;99.90;;;;;;5056131;28;20194;-74
2023/08/01 05:19:29;;;;;;;1.95;0.60;;;20.40;99.90;;;;;;5072082;28;20204;-74
2023/08/01 05:22:00;;;;;;;2.67;0.60;;;20.40;99.90;;;;;;5074138;28;20562;-74
2023/08/01 05:24:33;;;;;;;3.20;0.60;;;20.40;99.90;;;;;;5076165;28;20664;-74
2023/08/01 05:27:04;;;;;;;0.50;0.40;;;20.40;99.90;;;;;;5066530;28;20573;-75
2023/08/01 05:29:36;;;;;;;3.10;0.40;;;20.40;99.90;;;;;;5055667;28;20225;-75
2023/08/01 05:32:07;;;;;;;2.13;0.60;;;20.40;99.90;;;;;;5055378;28;20263;-74
2023/08/01 05:34:38;;;;;;;2.25;0.50;;;20.40;99.90;;;;;;5056202;28;20194;-74
2023/08/01 05:37:10;;;;;;;2.20;0.60;;;20.40;99.90;;;;;;5064900;28;20201;-75
2023/08/01 05:39:43;;;;;;;2.70;0.75;;;20.40;99.90;;;;;;5075403;28;20197;-75
2023/08/01 05:42:14;;;;;;;2.00;0.68;;;20.30;99.90;;;;;;5073084;28;20201;-74
2023/08/01 05:44:45;;;;;;;1.60;0.70;;;20.30;99.90;;;;;;5058868;28;20199;-75
2023/08/01 05:47:16;;;;;;;2.22;0.70;;;20.30;99.90;;;;;;5073485;28;20242;-74
2023/08/01 05:49:47;;;;;;;2.95;0.68;;;20.20;99.90;;;;;;5056565;28;20200;-75
2023/08/01 05:52:18;;;;;;;2.90;0.60;;;20.10;99.90;;;;;;5055277;28;20700;-74
2023/08/01 05:54:51;;;;;;;3.10;0.70;;;20.10;99.90;;;;;;5055431;28;20664;-74
2023/08/01 05:57:22;;;;;;;1.75;0.65;;;20.10;99.90;;;;;;5064599;28;20667;-75
2023/08/01 05:59:53;;;;;;;1.50;0.60;;;20.00;99.90;;;;;;5074820;28;20193;-74
2023/08/01 06:02:24;;;;;;;2.25;0.70;;;19.90;99.90;;;;;;5074753;28;20236;-75
2023/08/01 06:04:55;;;;;;;1.25;0.50;;;19.80;99.90;;;;;;5067315;28;20193;-75
2023/08/01 06:07:26;;;;;;;1.65;0.60;;;19.80;99.90;;;;;;5055165;28;20189;-74
2023/08/01 06:09:59;;;;;;;2.55;0.55;;;19.70;99.90;;;;;;5055184;28;20197;-75
2023/08/01 06:12:31;;;;;;;1.70;0.60;;;19.60;99.90;;;;;;5054815;28;20225;-75
2023/08/01 06:15:02;;;;;;;1.13;0.50;;;19.60;99.90;;;;;;5055969;28;20193;-75
2023/08/01 06:17:33;;;;;;;0.93;0.38;;;19.50;99.90;;;;;;5053857;28;20592;-74
2023/08/01 06:20:05;;;;;;;1.27;0.70;;;19.50;99.90;;;;;;5054874;28;20205;-75
2023/08/01 06:22:36;;;;;;;1.52;0.70;;;19.50;99.90;;;;;;5055251;28;20235;-76
2023/08/01 06:25:10;;;;;;;2.72;0.68;;;19.40;99.90;;;;;;5054019;28;20193;-75
2023/08/01 06:27:41;;;;;;;3.55;0.70;;;19.30;99.90;;;;;;5055052;28;20201;-76
2023/08/01 06:30:13;;;;;;;2.72;0.50;;;19.30;99.90;;;;;;5054428;28;20224;-75
2023/08/01 06:32:44;;;;;;;3.28;0.80;;;19.20;99.90;;;;;;5053329;28;20217;-75
2023/08/01 06:35:15;;;;;;;3.05;0.50;;;19.10;99.90;;;;;;5056342;28;20220;-75
2023/08/01 06:37:46;;;;;;;2.17;0.55;;;19.10;99.90;;;;;;5063506;28;20197;-75
2023/08/01 06:40:19;;;;;;;2.13;0.73;;;19.00;99.90;;;;;;5064439;28;20216;-75
2023/08/01 06:42:50;;;;;;;2.47;0.63;;;18.90;99.90;;;;;;5054074;28;20202;-75
2023/08/01 06:45:21;;;;;;;1.98;0.73;;;18.90;99.90;;;;;;5057498;28;20212;-75
2023/08/01 06:47:52;;;;;;;1.23;0.60;;;18.80;99.90;;;;;;5054881;28;20201;-75
2023/08/01 06:50:24;;;;;;;3.42;0.73;;;18.80;99.90;;;;;;5052548;28;20224;-76
2023/08/01 06:52:55;;;;;;;2.15;0.77;;;18.70;99.90;;;;;;5064321;28;20222;-75
2023/08/01 06:55:28;;;;;;;2.88;0.70;;;18.50;99.90;;;;;;5065217;28;20680;-75
2023/08/01 06:57:59;;;;;;;2.85;0.60;;;18.50;99.90;;;;;;5069749;28;20196;-75
2023/08/01 07:00:30;;;;;;;1.52;0.77;;;18.40;99.90;;;;;;5063494;28;20567;-75
2023/08/01 07:03:02;;;;;;;1.75;0.50;;;18.30;99.90;;;;;;5068796;28;20252;-75
2023/08/01 07:05:33;;;;;;;3.20;1.10;;;18.20;99.90;;;;;;5059097;28;20288;-75
2023/08/01 07:08:04;;;;;;;1.83;0.70;;;18.10;99.90;;;;;;5058862;28;20563;-75
2023/08/01 07:10:41;;;;;;;2.65;0.70;;;18.00;99.90;;;;;;5072110;28;20208;-75
2023/08/01 07:13:12;;;;;;;3.67;0.73;;;17.90;99.90;;;;;;5070855;28;20216;-74
2023/08/01 07:15:43;;;;;;;4.80;1.00;;;17.80;99.90;;;;;;5073449;28;20197;-75
2023/08/01 07:18:14;;;;;;;2.58;0.80;;;17.70;99.90;;;;;;5052970;28;20653;-74
2023/08/01 07:20:45;;;;;;;2.80;0.95;;;17.60;99.90;;;;;;5053290;28;20204;-74
2023/08/01 07:23:16;;;;;;;2.45;1.00;;;17.60;99.90;;;;;;5059773;28;20661;-75
2023/08/01 07:25:49;;;;;;;2.17;0.80;;;17.50;99.90;;;;;;5068407;28;20563;-74
2023/08/01 07:28:20;;;;;;;2.95;0.80;;;17.40;99.90;;;;;;5081995;28;20558;-75
2023/08/01 07:30:51;;;;;;;2.40;1.05;;;17.30;99.90;;;;;;5077840;28;20225;-75
2023/08/01 07:33:22;;;;;;;1.55;0.90;;;17.30;99.90;;;;;;5062480;28;20197;-75
2023/08/01 07:35:53;;;;;;;2.03;1.10;;;17.20;99.90;;;;;;5053453;28;20633;-74
2023/08/01 07:38:23;;;;;;;3.60;0.90;;;17.20;99.90;;;;;;5068399;28;20189;-75
2023/08/01 07:40:57;;;;;;;4.63;1.20;;;17.10;99.90;;;;;;5063329;28;20189;-74
2023/08/01 07:43:29;;;;;;;3.90;0.95;;;17.00;99.90;;;;;;5065342;28;20715;-75
2023/08/01 07:46:03;;;;;;;2.38;1.02;;;16.90;99.90;;;;;;5071812;28;20251;-74
2023/08/01 07:48:33;;;;;;;5.07;1.00;;;16.90;99.90;;;;;;5068169;28;20208;-74
2023/08/01 07:51:05;;;;;;;2.90;1.10;;;16.80;99.90;;;;;;5065698;28;20197;-75
2023/08/01 07:53:36;;;;;;;3.28;0.80;;;16.70;99.90;;;;;;5053118;28;20193;-74
2023/08/01 07:56:09;;;;;;;2.92;1.10;;;16.70;99.90;;;;;;5053749;28;20557;-74
2023/08/01 07:58:40;;;;;;;4.00;1.23;;;16.60;99.90;;;;;;5055974;28;20197;-75
2023/08/01 08:01:11;;;;;;;4.68;2.03;;;16.60;99.90;;;;;;5062070;28;20220;-74
2023/08/01 08:03:42;;;;;;;4.38;2.17;;;16.50;99.90;;;;;;5061477;28;20241;-74
2023/08/01 08:06:12;;;;;;;4.05;1.90;;;16.40;99.90;;;;;;5057089;28;20292;-74
2023/08/01 08:08:43;;;;;;;5.53;2.38;;;16.40;99.90;;;;;;5058358;28;20196;-74
2023/08/01 08:11:16;;;;;;;4.85;2.60;;;16.30;99.90;;;;;;5057485;28;20197;-74
2023/08/01 08:13:46;;;;;;;4.53;1.98;;;16.30;99.90;;;;;;5066463;28;20201;-74
2023/08/01 08:16:17;;;;;;;5.95;2.03;;;16.20;99.90;;;;;;5065832;28;20566;-74
2023/08/01 08:18:48;;;;;;;4.50;1.98;;;16.20;99.90;;;;;;5066458;28;20280;-74
2023/08/01 08:21:19;;;;;;;3.22;2.00;;;16.20;99.90;;;;;;5072794;28;20541;-74
2023/08/01 08:23:49;;;;;;;4.07;1.85;;;16.10;99.90;;;;;;5060857;28;20625;-74
2023/08/01 08:26:23;;;;;;;3.20;1.60;;;16.10;99.90;;;;;;5058274;28;20197;-74
2023/08/01 08:28:54;;;;;;;4.43;1.85;;;16.00;99.90;;;;;;5063086;28;20706;-74
2023/08/01 08:31:25;;;;;;;5.10;1.80;;;16.00;99.90;;;;;;5063457;28;20208;-73
2023/08/01 08:33:56;;;;;;;4.03;1.83;;;15.90;99.90;;;;;;5053390;28;20193;-74
2023/08/01 08:36:28;;;;;;;4.78;2.00;;;15.90;99.90;;;;;;5067451;28;20194;-73
2023/08/01 08:39:00;;;;;;;2.70;1.55;;;15.80;99.90;;;;;;5063707;28;20193;-74
2023/08/01 08:41:37;;;;;;;5.03;2.00;;;15.70;99.90;;;;;;5057542;28;20228;-74
2023/08/01 08:44:11;;;;;;;5.35;1.95;;;15.70;99.90;;;;;;5075484;28;20219;-74
2023/08/01 08:46:47;;;;;;;4.22;1.80;;;15.60;99.90;;;;;;5074523;28;20196;-74
2023/08/01 08:49:19;;;;;;;6.45;1.90;;;15.60;99.90;;;;;;5068296;28;20204;-74
2023/08/01 08:51:51;;;;;;;4.57;1.92;;;15.60;99.90;;;;;;5063863;28;20695;-74
2023/08/01 08:54:22;;;;;;;3.42;1.48;;;15.60;99.90;;;;;;5066163;28;20202;-74
2023/08/01 08:56:55;;;;;;;4.82;1.80;;;15.60;99.90;;;;;;5069650;28;20205;-74
2023/08/01 08:59:27;;;;;;;4.65;1.60;;;15.50;99.90;;;;;;5067601;28;20193;-73
2023/08/01 09:02:00;;;;;;;3.30;1.60;;;15.50;99.90;;;;;;5071172;28;20252;-73
2023/08/01 09:04:32;;;;;;;3.60;1.80;;;15.50;99.90;;;;;;5065440;28;20260;-74
2023/08/01 09:07:08;;;;;;;4.38;1.60;;;15.50;99.90;;;;;;5068097;28;20203;-74
2023/08/01 09:09:39;;;;;;;4.45;1.85;;;15.50;99.90;;;;;;5055826;28;20193;-73
2023/08/01 09:12:14;;;;;;;4.20;1.63;;;15.50;99.90;;;;;;5071168;28;20209;-73
2023/08/01 09:14:46;;;;;;;2.75;1.38;;;15.40;99.90;;;;;;5057707;28;20198;-74
2023/08/01 09:17:18;;;;;;;3.58;1.67;;;15.40;99.90;;;;;;5074161;28;20579;-74
2023/08/01 09:19:49;;;;;;;7.13;2.10;;;15.40;99.90;;;;;;5069551;28;20262;-74
2023/08/01 09:22:21;;;;;;;4.50;2.10;;;15.30;99.90;;;;;;5066468;28;20205;-73
2023/08/01 09:24:58;;;;;;;3.63;1.50;;;15.30;99.90;;;;;;5068985;28;20193;-74
2023/08/01 09:27:36;;;;;;;4.93;1.80;;;15.20;99.90;;;;;;5059230;28;20197;-73
2023/08/01 09:30:13;;;;;;;5.82;2.17;;;15.20;99.90;;;;;;5063382;28;20224;-74
2023/08/01 09:32:53;;;;;;;6.10;2.13;;;15.20;99.90;;;;;;5065123;28;20232;-73
2023/08/01 09:35:24;;;;;;;5.18;2.47;;;15.20;99.90;;;;;;5060694;28;20197;-73
2023/08/01 09:37:55;;;;;;;5.35;2.22;;;15.10;99.90;;;;;;5063517;28;20197;-74
2023/08/01 09:40:25;;;;;;;5.05;2.17;;;15.10;99.90;;;;;;5066679;28;20540;-73
2023/08/01 09:43:05;;;;;;;3.83;2.10;;;15.10;99.90;;;;;;5073518;28;20196;-73
2023/08/01 09:45:36;;;;;;;5.90;2.50;;;15.10;99.90;;;;;;5062605;28;20659;-73
2023/08/01 09:48:07;;;;;;;6.88;2.58;;;15.10;99.90;;;;;;5063538;28;20196;-74
2023/08/01 09:50:38;;;;;;;5.18;2.10;;;15.10;99.90;;;;;;5069821;28;20726;-74
2023/08/01 09:53:12;;;;;;;3.85;2.20;;;15.10;99.90;;;;;;5067529;28;20221;-74
2023/08/01 09:55:46;;;;;;;6.43;2.40;;;15.10;99.90;;;;;;5061022;28;20283;-74
2023/08/01 09:58:23;;;;;;;6.45;2.40;;;15.00;99.90;;;;;;5069025;28;20212;-74
2023/08/01 10:00:54;;;;;;;4.03;2.00;;;15.00;99.90;;;;;;5056108;28;20565;-74
2023/08/01 10:03:26;;;;;;;5.97;2.40;;;15.00;99.90;;;;;;5070422;28;20239;-73
2023/08/01 10:05:58;;;;;;;5.65;1.92;;;15.00;99.90;;;;;;5073106;28;20197;-73
2023/08/01 10:08:33;;;;;;;4.65;1.85;;;15.00;99.90;;;;;;5064390;28;20563;-73
2023/08/01 10:11:08;;;;;;;4.63;1.83;;;15.00;99.90;;;;;;5069914;28;20512;-74
2023/08/01 10:13:41;;;;;;;6.53;1.95;;;15.00;99.90;;;;;;5083574;28;20216;-73
2023/08/01 10:16:12;;;;;;;5.13;2.05;;;15.00;99.90;;;;;;5076533;28;20559;-74
2023/08/01 10:18:43;;;;;;;4.22;1.83;;;15.00;99.90;;;;;;5079282;28;20184;-73
2023/08/01 10:21:18;;;;;;;4.50;1.60;;;14.90;99.90;;;;;;5082392;28;20219;-73
2023/08/01 10:23:51;;;;;;;5.72;1.85;;;14.90;99.90;;;;;;5086934;28;20210;-73
2023/08/01 10:26:21;;;;;;;4.88;1.50;;;14.90;99.90;;;;;;5088041;28;20193;-73
2023/08/01 10:28:58;;;;;;;4.13;1.63;;;14.90;99.90;;;;;;5070547;28;20221;-74
2023/08/01 10:31:29;;;;;;;7.03;1.80;;;14.90;99.90;;;;;;5062348;28;20193;-76
2023/08/01 10:34:08;;;;;;;5.75;2.08;;;14.80;99.90;;;;;;5070933;28;20288;-76
2023/08/01 10:36:40;;;;;;;4.70;2.05;;;14.80;99.90;;;;;;5066574;28;20196;-75
2023/08/01 10:39:11;;;;;;;4.05;2.03;;;14.80;99.90;;;;;;5068217;28;20196;-73
2023/08/01 10:41:42;;;;;;;6.50;2.33;;;14.80;99.90;;;;;;5062942;28;20198;-74
2023/08/01 10:44:15;;;;;;;5.88;2.28;;;14.70;99.90;;;;;;5057961;28;20200;-72
2023/08/01 10:46:52;;;;;;;4.68;2.25;;;14.70;99.90;;;;;;5056531;28;20193;-71
2023/08/01 10:49:34;;;;;;;5.25;2.60;;;14.70;99.90;;;;;;5074361;28;20203;-71
2023/08/01 10:52:06;;;;;;;4.88;2.13;;;14.60;99.90;;;;;;5073235;28;20189;-71
2023/08/01 10:54:37;;;;;;;4.57;2.10;;;14.60;99.90;;;;;;5070160;28;20189;-72
2023/08/01 10:57:10;;;;;;;5.55;2.17;;;14.60;99.90;;;;;;5074118;28;20626;-73
2023/08/01 10:59:43;;;;;;;4.57;2.15;;;14.60;99.90;;;;;;5074079;28;20228;-73
2023/08/01 11:02:14;;;;;;;4.05;1.75;;;14.50;99.90;;;;;;5073649;28;20692;-73
2023/08/01 11:04:45;;;;;;;2.90;1.75;;;14.50;99.90;;;;;;5073356;28;20192;-73
2023/08/01 11:07:16;;;;;;;3.97;2.13;;;14.50;99.90;;;;;;5073554;28;20219;-73
2023/08/01 11:09:46;;;;;;;4.85;2.28;;;14.40;99.90;;;;;;5073911;28;20200;-73
2023/08/01 11:12:17;;;;;;;4.43;1.90;;;14.40;99.90;;;;;;5073520;28;20196;-73
2023/08/01 11:14:50;;;;;;;4.70;2.00;;;14.40;99.90;;;;;;5068658;28;20201;-71
2023/08/01 11:17:21;;;;;;;5.32;2.30;;;14.40;99.90;;;;;;5053605;28;20836;-72
2023/08/01 11:19:51;;;;;;;6.55;2.92;;;14.30;99.90;;;;;;5065240;28;20211;-71
2023/08/01 11:22:22;;;;;;;5.95;2.50;;;14.30;99.90;;;;;;5072009;28;20283;-72
2023/08/01 11:24:54;;;;;;;5.82;2.75;;;14.30;99.90;;;;;;5053877;28;20209;-71
2023/08/01 11:27:25;;;;;;;5.60;2.53;;;14.30;99.90;;;;;;5053904;28;20650;-71
2023/08/01 11:29:58;;;;;;;4.72;2.00;;;14.20;99.90;;;;;;5062602;28;20221;-71
2023/08/01 11:32:37;;;;;;;6.70;2.63;;;14.20;99.90;;;;;;5054603;28;20201;-71
2023/08/01 11:35:08;;;;;;;6.90;2.55;;;14.20;99.90;;;;;;5059332;28;20224;-72
2023/08/01 11:37:40;;;;;;;5.90;2.70;;;14.20;99.90;;;;;;5060644;28;20570;-71
2023/08/01 11:40:12;;;;;;;7.13;2.50;;;14.10;99.90;;;;;;5061833;28;20675;-71
2023/08/01 11:42:42;;;;;;;5.88;2.75;;;14.10;99.90;;;;;;5059568;28;20276;-71
2023/08/01 11:45:16;;;;;;;4.82;2.70;;;14.00;99.90;;;;;;5053855;28;20204;-73
2023/08/01 11:47:49;;;;;;;6.07;3.00;;;14.00;99.90;;;;;;5069798;28;20190;-73
2023/08/01 11:50:25;;;;;;;7.38;3.00;;;14.00;99.90;;;;;;5057734;28;20201;-73
2023/08/01 11:52:56;;;;;;;5.10;2.50;;;14.00;99.90;;;;;;5066685;28;20205;-73
2023/08/01 11:55:29;;;;;;;5.70;2.40;;;14.00;99.90;;;;;;5071059;28;20186;-73
2023/08/01 11:58:01;;;;;;;5.05;2.42;;;14.00;99.90;;;;;;5063037;28;20933;-73
2023/08/01 12:00:33;;;;;;;6.43;2.28;;;13.90;99.90;;;;;;5056368;28;20197;-73
2023/08/01 12:03:12;;;;;;;5.78;2.70;;;14.00;99.90;;;;;;5063390;28;20228;-73
2023/08/01 12:05:45;;;;;;;7.60;2.75;;;13.90;99.90;;;;;;5059695;28;20565;-73
2023/08/01 12:08:17;;;;;;;5.70;2.67;;;13.90;99.90;;;;;;5063814;28;20539;-73
2023/08/01 12:10:49;;;;;;;10.25;3.17;;;13.90;99.90;;;;;;5055038;28;20212;-73
2023/08/01 12:13:27;;;;;;;6.38;3.22;;;13.90;99.90;;;;;;5058616;28;20227;-73
2023/08/01 12:16:00;;;;;;;9.60;4.97;;;13.90;99.90;;;;;;5069141;28;20671;-73
2023/08/01 12:18:31;;;;;;;8.57;3.80;;;13.90;99.90;;;;;;5065978;28;20193;-73
2023/08/01 12:21:05;;;;;;;7.95;4.28;;;13.90;99.90;;;;;;5058340;28;20189;-73
2023/08/01 12:23:36;;;;;;;11.48;4.63;;;13.90;99.90;;;;;;5068582;28;20192;-73
2023/08/01 12:26:06;;;;;;;12.35;3.95;;;13.80;99.90;;;;;;5060726;28;20568;-73
2023/08/01 12:28:37;;;;;;;8.48;3.97;;;13.80;99.90;;;;;;5069392;28;20651;-73
2023/08/01 12:31:10;;;;;;;10.07;4.07;;;13.80;99.90;;;;;;5056669;28;20197;-73
2023/08/01 12:33:40;;;;;;;8.38;4.00;;;13.80;99.90;;;;;;5053935;28;20213;-73
2023/08/01 12:36:11;;;;;;;7.32;4.03;;;13.80;99.90;;;;;;5059455;28;20189;-73
2023/08/01 12:38:42;;;;;;;7.00;4.13;;;13.80;99.90;;;;;;5068146;28;20207;-73
2023/08/01 12:41:13;;;;;;;8.95;4.28;;;13.70;99.90;;;;;;5067381;28;20557;-73
2023/08/01 12:43:43;;;;;;;10.18;4.30;;;13.70;99.90;;;;;;5054213;28;20204;-72
2023/08/01 12:46:16;;;;;;;9.52;4.50;;;13.70;99.90;;;;;;5058197;28;20189;-73
2023/08/01 12:48:47;;;;;;;10.77;4.30;;;13.70;99.90;;;;;;5072423;28;20197;-73
2023/08/01 12:51:17;;;;;;;8.27;4.38;;;13.70;99.90;;;;;;5072596;28;20185;-73
2023/08/01 12:53:48;;;;;;;10.05;4.65;;;13.60;99.90;;;;;;5072718;28;20702;-73
2023/08/01 12:56:19;;;;;;;9.05;4.38;;;13.60;99.90;;;;;;5071162;28;20200;-73
2023/08/01 12:58:50;;;;;;;8.85;4.30;;;13.50;99.90;;;;;;5061300;28;20196;-73
2023/08/01 13:01:22;;;;;;;12.85;4.80;;;13.50;99.90;;;;;;5073092;28;20200;-73
2023/08/01 13:03:53;;;;;;;8.05;4.05;;;13.50;99.90;;;;;;5072249;28;20224;-73
2023/08/01 13:06:24;;;;;;;10.75;4.10;;;13.50;99.90;;;;;;5072411;28;20189;-73
2023/08/01 13:08:54;;;;;;;8.73;4.40;;;13.50;99.90;;;;;;5072355;28;20542;-73